Mirny, Russia
Current Conditions -  °F | °C
As of 1:30 PM on Friday 24 Oct 2014 (Local Time) from URKK Reporting Station
Overcast Overcast  
Wind Chill: 29°   Ceiling: 1000
Heat Index: 39°   Visibility: 6mi
Dew Point: 36°   Wind: 20mph
Humidity: 87%   Direction: 80°E
Pressure: 30.12"   Gusts: 27mph
Location:  45.55°N, 38.91°E
Report Text: URKK 241030Z 08009G12MPS 9999 OVC010 04/02 Q1020 TEMPO 1000 BRBKN004 RMK QFE762 SC070
Loading
Personal Weather Stations






























Interactive Weather Map
Tropical Storm Tracking
New forecast layout! Learn more

10-Day Weather Forecast

Advertisements
Track Severe Weather on mobile